sensor_id;sensor_type;location;lat;lon;timestamp;temperature;humidity
45066;DHT22;30830;53.704;10.004;2023-04-15T00:01:26;6.70;99.90
45066;DHT22;30830;53.704;10.004;2023-04-15T00:03:52;6.70;99.90
45066;DHT22;30830;53.704;10.004;2023-04-15T00:06:19;6.70;99.90
45066;DHT22;30830;53.704;10.004;2023-04-15T00:08:45;6.70;99.90
45066;DHT22;30830;53.704;10.004;2023-04-15T00:11:11;6.70;99.90
45066;DHT22;30830;53.704;10.004;2023-04-15T00:13:37;6.60;99.90
45066;DHT22;30830;53.704;10.004;2023-04-15T00:16:04;6.60;99.90
45066;DHT22;30830;53.704;10.004;2023-04-15T00:18:30;6.70;99.90
45066;DHT22;30830;53.704;10.004;2023-04-15T00:20:56;6.60;99.90
45066;DHT22;30830;53.704;10.004;2023-04-15T00:23:22;6.60;99.90
45066;DHT22;30830;53.704;10.004;2023-04-15T00:25:57;6.70;99.90
45066;DHT22;30830;53.704;10.004;2023-04-15T00:28:22;6.60;99.90
45066;DHT22;30830;53.704;10.004;2023-04-15T00:30:48;6.70;99.90
45066;DHT22;30830;53.704;10.004;2023-04-15T00:33:14;6.60;99.90
45066;DHT22;30830;53.704;10.004;2023-04-15T00:35:40;6.60;99.90
45066;DHT22;30830;53.704;10.004;2023-04-15T00:38:06;6.60;99.90
45066;DHT22;30830;53.704;10.004;2023-04-15T00:40:35;6.70;99.90
45066;DHT22;30830;53.704;10.004;2023-04-15T00:43:01;6.70;99.90
45066;DHT22;30830;53.704;10.004;2023-04-15T00:45:26;6.70;99.90
45066;DHT22;30830;53.704;10.004;2023-04-15T00:47:55;6.60;99.90
45066;DHT22;30830;53.704;10.004;2023-04-15T00:50:21;6.60;99.90
45066;DHT22;30830;53.704;10.004;2023-04-15T00:52:47;6.60;99.90
45066;DHT22;30830;53.704;10.004;2023-04-15T00:55:12;6.60;99.90
45066;DHT22;30830;53.704;10.004;2023-04-15T00:57:39;6.60;99.90
45066;DHT22;30830;53.704;10.004;2023-04-15T01:00:05;6.60;99.90
45066;DHT22;30830;53.704;10.004;2023-04-15T01:02:34;6.60;99.90
45066;DHT22;30830;53.704;10.004;2023-04-15T01:05:00;6.60;99.90
45066;DHT22;30830;53.704;10.004;2023-04-15T01:07:26;6.70;99.90
45066;DHT22;30830;53.704;10.004;2023-04-15T01:09:52;6.70;99.90
45066;DHT22;30830;53.704;10.004;2023-04-15T01:12:18;6.70;99.90
45066;DHT22;30830;53.704;10.004;2023-04-15T01:14:44;6.70;99.90
45066;DHT22;30830;53.704;10.004;2023-04-15T01:17:10;6.70;99.90
45066;DHT22;30830;53.704;10.004;2023-04-15T01:19:37;6.70;99.90
45066;DHT22;30830;53.704;10.004;2023-04-15T01:22:03;6.70;99.90
45066;DHT22;30830;53.704;10.004;2023-04-15T01:24:30;6.70;99.90
45066;DHT22;30830;53.704;10.004;2023-04-15T01:26:57;6.70;99.90
45066;DHT22;30830;53.704;10.004;2023-04-15T01:29:23;6.70;99.90
45066;DHT22;30830;53.704;10.004;2023-04-15T01:31:53;6.70;99.90
45066;DHT22;30830;53.704;10.004;2023-04-15T01:34:19;6.70;99.90
45066;DHT22;30830;53.704;10.004;2023-04-15T01:36:45;6.70;99.90
45066;DHT22;30830;53.704;10.004;2023-04-15T01:39:11;6.70;99.90
45066;DHT22;30830;53.704;10.004;2023-04-15T01:41:37;6.70;99.90
45066;DHT22;30830;53.704;10.004;2023-04-15T01:44:02;6.70;99.90
45066;DHT22;30830;53.704;10.004;2023-04-15T01:46:28;6.70;99.90
45066;DHT22;30830;53.704;10.004;2023-04-15T01:48:53;6.70;99.90
45066;DHT22;30830;53.704;10.004;2023-04-15T01:51:19;6.70;99.90
45066;DHT22;30830;53.704;10.004;2023-04-15T01:53:45;6.70;99.90
45066;DHT22;30830;53.704;10.004;2023-04-15T01:56:10;6.70;99.90
45066;DHT22;30830;53.704;10.004;2023-04-15T01:58:36;6.70;99.90
45066;DHT22;30830;53.704;10.004;2023-04-15T02:01:02;6.70;99.90
45066;DHT22;30830;53.704;10.004;2023-04-15T02:03:28;6.70;99.90
45066;DHT22;30830;53.704;10.004;2023-04-15T02:05:54;6.70;99.90
45066;DHT22;30830;53.704;10.004;2023-04-15T02:08:20;6.70;99.90
45066;DHT22;30830;53.704;10.004;2023-04-15T02:10:45;6.70;99.90
45066;DHT22;30830;53.704;10.004;2023-04-15T02:13:11;6.70;99.90
45066;DHT22;30830;53.704;10.004;2023-04-15T02:15:36;6.70;99.90
45066;DHT22;30830;53.704;10.004;2023-04-15T02:18:02;6.70;99.90
45066;DHT22;30830;53.704;10.004;2023-04-15T02:20:28;6.70;99.90
45066;DHT22;30830;53.704;10.004;2023-04-15T02:22:55;6.70;99.90
45066;DHT22;30830;53.704;10.004;2023-04-15T02:25:21;6.70;99.90
45066;DHT22;30830;53.704;10.004;2023-04-15T02:27:47;6.70;99.90
45066;DHT22;30830;53.704;10.004;2023-04-15T02:30:12;6.70;99.90
45066;DHT22;30830;53.704;10.004;2023-04-15T02:32:38;6.70;99.90
45066;DHT22;30830;53.704;10.004;2023-04-15T02:35:05;6.80;99.90
45066;DHT22;30830;53.704;10.004;2023-04-15T02:37:32;6.70;99.90
45066;DHT22;30830;53.704;10.004;2023-04-15T02:40:01;6.70;99.90
45066;DHT22;30830;53.704;10.004;2023-04-15T02:42:27;6.70;99.90
45066;DHT22;30830;53.704;10.004;2023-04-15T02:44:54;6.80;99.90
45066;DHT22;30830;53.704;10.004;2023-04-15T02:47:20;6.80;99.90
45066;DHT22;30830;53.704;10.004;2023-04-15T02:49:46;6.80;99.90
45066;DHT22;30830;53.704;10.004;2023-04-15T02:52:11;6.80;99.90
45066;DHT22;30830;53.704;10.004;2023-04-15T02:54:38;6.80;99.90
45066;DHT22;30830;53.704;10.004;2023-04-15T02:57:04;6.80;99.90
45066;DHT22;30830;53.704;10.004;2023-04-15T02:59:31;6.80;99.90
45066;DHT22;30830;53.704;10.004;2023-04-15T03:01:56;6.80;99.90
45066;DHT22;30830;53.704;10.004;2023-04-15T03:04:25;6.80;99.90
45066;DHT22;30830;53.704;10.004;2023-04-15T03:06:51;6.80;99.90
45066;DHT22;30830;53.704;10.004;2023-04-15T03:09:16;6.80;99.90
45066;DHT22;30830;53.704;10.004;2023-04-15T03:11:42;6.80;99.90
45066;DHT22;30830;53.704;10.004;2023-04-15T03:14:07;6.90;99.90
45066;DHT22;30830;53.704;10.004;2023-04-15T03:16:33;6.90;99.90
45066;DHT22;30830;53.704;10.004;2023-04-15T03:18:58;6.80;99.90
45066;DHT22;30830;53.704;10.004;2023-04-15T03:21:24;6.80;99.90
45066;DHT22;30830;53.704;10.004;2023-04-15T03:23:50;6.90;99.90
45066;DHT22;30830;53.704;10.004;2023-04-15T03:26:29;6.90;99.90
45066;DHT22;30830;53.704;10.004;2023-04-15T03:28:56;6.90;99.90
45066;DHT22;30830;53.704;10.004;2023-04-15T03:31:22;6.90;99.90
45066;DHT22;30830;53.704;10.004;2023-04-15T03:33:48;6.90;99.90
45066;DHT22;30830;53.704;10.004;2023-04-15T03:36:13;6.90;99.90
45066;DHT22;30830;53.704;10.004;2023-04-15T03:38:39;6.90;99.90
45066;DHT22;30830;53.704;10.004;2023-04-15T03:41:05;6.90;99.90
45066;DHT22;30830;53.704;10.004;2023-04-15T03:43:30;7.00;99.90
45066;DHT22;30830;53.704;10.004;2023-04-15T03:45:56;7.00;99.90
45066;DHT22;30830;53.704;10.004;2023-04-15T03:48:21;6.90;99.90
45066;DHT22;30830;53.704;10.004;2023-04-15T03:50:47;6.90;99.90
45066;DHT22;30830;53.704;10.004;2023-04-15T03:53:14;6.90;99.90
45066;DHT22;30830;53.704;10.004;2023-04-15T03:55:39;7.00;99.90
45066;DHT22;30830;53.704;10.004;2023-04-15T03:58:05;7.00;99.90
45066;DHT22;30830;53.704;10.004;2023-04-15T04:00:31;7.00;99.90
45066;DHT22;30830;53.704;10.004;2023-04-15T04:02:56;7.00;99.90
45066;DHT22;30830;53.704;10.004;2023-04-15T04:05:22;7.00;99.90
45066;DHT22;30830;53.704;10.004;2023-04-15T04:07:48;7.00;99.90
45066;DHT22;30830;53.704;10.004;2023-04-15T04:10:14;7.00;99.90
45066;DHT22;30830;53.704;10.004;2023-04-15T04:12:39;7.00;99.90
45066;DHT22;30830;53.704;10.004;2023-04-15T04:15:05;7.00;99.90
45066;DHT22;30830;53.704;10.004;2023-04-15T04:17:31;7.00;99.90
45066;DHT22;30830;53.704;10.004;2023-04-15T04:19:57;7.00;99.90
45066;DHT22;30830;53.704;10.004;2023-04-15T04:22:22;7.10;99.90
45066;DHT22;30830;53.704;10.004;2023-04-15T04:24:48;7.00;99.90
45066;DHT22;30830;53.704;10.004;2023-04-15T04:27:14;7.00;99.90
45066;DHT22;30830;53.704;10.004;2023-04-15T04:29:39;7.10;99.90
45066;DHT22;30830;53.704;10.004;2023-04-15T04:32:05;7.10;99.90
45066;DHT22;30830;53.704;10.004;2023-04-15T04:34:31;7.10;99.90
45066;DHT22;30830;53.704;10.004;2023-04-15T04:36:56;7.10;99.90
45066;DHT22;30830;53.704;10.004;2023-04-15T04:39:22;7.10;99.90
45066;DHT22;30830;53.704;10.004;2023-04-15T04:41:48;7.10;99.90
45066;DHT22;30830;53.704;10.004;2023-04-15T04:44:14;7.10;99.90
45066;DHT22;30830;53.704;10.004;2023-04-15T04:46:40;7.10;99.90
45066;DHT22;30830;53.704;10.004;2023-04-15T04:49:05;7.10;99.90
45066;DHT22;30830;53.704;10.004;2023-04-15T04:51:31;7.10;99.90
45066;DHT22;30830;53.704;10.004;2023-04-15T04:53:57;7.10;99.90
45066;DHT22;30830;53.704;10.004;2023-04-15T04:56:23;7.10;99.90
45066;DHT22;30830;53.704;10.004;2023-04-15T04:58:48;7.10;99.90
45066;DHT22;30830;53.704;10.004;2023-04-15T05:01:14;7.10;99.90
45066;DHT22;30830;53.704;10.004;2023-04-15T05:03:40;7.20;99.90
45066;DHT22;30830;53.704;10.004;2023-04-15T05:06:06;7.20;99.90
45066;DHT22;30830;53.704;10.004;2023-04-15T05:08:33;7.20;99.90
45066;DHT22;30830;53.704;10.004;2023-04-15T05:10:58;7.20;99.90
45066;DHT22;30830;53.704;10.004;2023-04-15T05:13:24;7.20;99.90
45066;DHT22;30830;53.704;10.004;2023-04-15T05:15:50;7.20;99.90
45066;DHT22;30830;53.704;10.004;2023-04-15T05:18:15;7.20;99.90
45066;DHT22;30830;53.704;10.004;2023-04-15T05:20:41;7.20;99.90
45066;DHT22;30830;53.704;10.004;2023-04-15T05:23:06;7.20;99.90
45066;DHT22;30830;53.704;10.004;2023-04-15T05:25:32;7.20;99.90
45066;DHT22;30830;53.704;10.004;2023-04-15T05:27:58;7.20;99.90
45066;DHT22;30830;53.704;10.004;2023-04-15T05:30:23;7.20;99.90
45066;DHT22;30830;53.704;10.004;2023-04-15T05:32:49;7.30;99.90
45066;DHT22;30830;53.704;10.004;2023-04-15T05:35:14;7.30;99.90
45066;DHT22;30830;53.704;10.004;2023-04-15T05:37:40;7.30;99.90
45066;DHT22;30830;53.704;10.004;2023-04-15T05:40:06;7.30;99.90
45066;DHT22;30830;53.704;10.004;2023-04-15T05:42:34;7.30;99.90
45066;DHT22;30830;53.704;10.004;2023-04-15T05:44:59;7.30;99.90
45066;DHT22;30830;53.704;10.004;2023-04-15T05:47:25;7.30;99.90
45066;DHT22;30830;53.704;10.004;2023-04-15T05:49:51;7.40;99.90
45066;DHT22;30830;53.704;10.004;2023-04-15T05:52:17;7.30;99.90
45066;DHT22;30830;53.704;10.004;2023-04-15T05:54:42;7.30;99.90
45066;DHT22;30830;53.704;10.004;2023-04-15T05:57:08;7.40;99.90
45066;DHT22;30830;53.704;10.004;2023-04-15T05:59:33;7.40;99.90
45066;DHT22;30830;53.704;10.004;2023-04-15T06:01:59;7.40;99.90
45066;DHT22;30830;53.704;10.004;2023-04-15T06:04:25;7.40;99.90
45066;DHT22;30830;53.704;10.004;2023-04-15T06:06:50;7.40;99.90
45066;DHT22;30830;53.704;10.004;2023-04-15T06:09:16;7.40;99.90
45066;DHT22;30830;53.704;10.004;2023-04-15T06:11:42;7.40;99.90
45066;DHT22;30830;53.704;10.004;2023-04-15T06:14:07;7.40;99.90
45066;DHT22;30830;53.704;10.004;2023-04-15T06:16:33;7.50;99.90
45066;DHT22;30830;53.704;10.004;2023-04-15T06:18:58;7.50;99.90
45066;DHT22;30830;53.704;10.004;2023-04-15T06:21:24;7.50;99.90
45066;DHT22;30830;53.704;10.004;2023-04-15T06:23:49;7.50;99.90
45066;DHT22;30830;53.704;10.004;2023-04-15T06:26:15;7.50;99.90
45066;DHT22;30830;53.704;10.004;2023-04-15T06:28:40;7.50;99.90
45066;DHT22;30830;53.704;10.004;2023-04-15T06:31:06;7.60;99.90
45066;DHT22;30830;53.704;10.004;2023-04-15T06:33:32;7.50;99.90
45066;DHT22;30830;53.704;10.004;2023-04-15T06:35:57;7.60;99.90
45066;DHT22;30830;53.704;10.004;2023-04-15T06:38:23;7.60;99.90
45066;DHT22;30830;53.704;10.004;2023-04-15T06:40:48;7.60;99.90
45066;DHT22;30830;53.704;10.004;2023-04-15T06:43:14;7.60;99.90
45066;DHT22;30830;53.704;10.004;2023-04-15T06:45:39;7.60;99.90
45066;DHT22;30830;53.704;10.004;2023-04-15T06:48:05;7.60;99.90
45066;DHT22;30830;53.704;10.004;2023-04-15T06:50:31;7.60;99.90
45066;DHT22;30830;53.704;10.004;2023-04-15T06:52:57;7.70;99.90
45066;DHT22;30830;53.704;10.004;2023-04-15T06:55:22;7.70;99.90
45066;DHT22;30830;53.704;10.004;2023-04-15T06:57:48;7.70;99.90
45066;DHT22;30830;53.704;10.004;2023-04-15T07:00:14;7.70;99.90
45066;DHT22;30830;53.704;10.004;2023-04-15T07:02:40;7.70;99.90
45066;DHT22;30830;53.704;10.004;2023-04-15T07:05:05;7.80;99.90
45066;DHT22;30830;53.704;10.004;2023-04-15T07:07:31;7.80;99.90
45066;DHT22;30830;53.704;10.004;2023-04-15T07:09:57;7.80;99.90
45066;DHT22;30830;53.704;10.004;2023-04-15T07:12:23;7.80;99.90
45066;DHT22;30830;53.704;10.004;2023-04-15T07:14:48;7.80;99.90
45066;DHT22;30830;53.704;10.004;2023-04-15T07:17:14;7.80;99.90
45066;DHT22;30830;53.704;10.004;2023-04-15T07:19:39;7.80;99.90
45066;DHT22;30830;53.704;10.004;2023-04-15T07:22:05;7.90;99.90
45066;DHT22;30830;53.704;10.004;2023-04-15T07:24:31;7.90;99.90
45066;DHT22;30830;53.704;10.004;2023-04-15T07:26:56;7.90;99.90
45066;DHT22;30830;53.704;10.004;2023-04-15T07:29:22;7.90;99.90
45066;DHT22;30830;53.704;10.004;2023-04-15T07:31:48;7.90;99.90
45066;DHT22;30830;53.704;10.004;2023-04-15T07:34:13;7.90;99.90
45066;DHT22;30830;53.704;10.004;2023-04-15T07:36:39;8.00;99.90
45066;DHT22;30830;53.704;10.004;2023-04-15T07:39:04;7.90;99.90
45066;DHT22;30830;53.704;10.004;2023-04-15T07:41:30;7.90;99.90
45066;DHT22;30830;53.704;10.004;2023-04-15T07:43:56;7.90;99.90
45066;DHT22;30830;53.704;10.004;2023-04-15T07:46:21;8.00;99.90
45066;DHT22;30830;53.704;10.004;2023-04-15T07:48:49;8.00;99.90
45066;DHT22;30830;53.704;10.004;2023-04-15T07:51:15;8.00;99.90
45066;DHT22;30830;53.704;10.004;2023-04-15T07:53:42;8.00;99.90
45066;DHT22;30830;53.704;10.004;2023-04-15T07:56:07;8.00;99.90
45066;DHT22;30830;53.704;10.004;2023-04-15T07:58:33;8.00;99.90
45066;DHT22;30830;53.704;10.004;2023-04-15T08:00:58;8.10;99.90
45066;DHT22;30830;53.704;10.004;2023-04-15T08:03:24;8.10;99.90
45066;DHT22;30830;53.704;10.004;2023-04-15T08:05:49;8.20;99.90
45066;DHT22;30830;53.704;10.004;2023-04-15T08:08:15;8.10;99.90
45066;DHT22;30830;53.704;10.004;2023-04-15T08:10:41;8.20;99.90
45066;DHT22;30830;53.704;10.004;2023-04-15T08:13:06;8.20;99.90
45066;DHT22;30830;53.704;10.004;2023-04-15T08:15:32;8.20;99.90
45066;DHT22;30830;53.704;10.004;2023-04-15T08:17:58;8.10;99.90
45066;DHT22;30830;53.704;10.004;2023-04-15T08:20:25;8.10;99.90
45066;DHT22;30830;53.704;10.004;2023-04-15T08:22:51;8.20;99.90
45066;DHT22;30830;53.704;10.004;2023-04-15T08:25:18;8.20;99.90
45066;DHT22;30830;53.704;10.004;2023-04-15T08:27:44;8.30;99.90
45066;DHT22;30830;53.704;10.004;2023-04-15T08:30:11;8.30;99.90
45066;DHT22;30830;53.704;10.004;2023-04-15T08:32:36;8.30;99.90
45066;DHT22;30830;53.704;10.004;2023-04-15T08:35:02;8.30;99.90
45066;DHT22;30830;53.704;10.004;2023-04-15T08:37:28;8.40;99.90
45066;DHT22;30830;53.704;10.004;2023-04-15T08:39:53;8.40;99.90
45066;DHT22;30830;53.704;10.004;2023-04-15T08:42:30;8.40;99.90
45066;DHT22;30830;53.704;10.004;2023-04-15T08:44:58;8.40;99.90
45066;DHT22;30830;53.704;10.004;2023-04-15T08:47:29;8.50;99.90
45066;DHT22;30830;53.704;10.004;2023-04-15T08:49:57;8.50;99.90
45066;DHT22;30830;53.704;10.004;2023-04-15T08:52:25;8.60;99.90
45066;DHT22;30830;53.704;10.004;2023-04-15T08:54:54;8.60;99.90
45066;DHT22;30830;53.704;10.004;2023-04-15T08:57:27;8.60;99.90
45066;DHT22;30830;53.704;10.004;2023-04-15T08:59:56;8.60;99.90
45066;DHT22;30830;53.704;10.004;2023-04-15T09:02:23;8.70;99.90
45066;DHT22;30830;53.704;10.004;2023-04-15T09:04:50;8.80;99.90
45066;DHT22;30830;53.704;10.004;2023-04-15T09:07:15;8.80;99.90
45066;DHT22;30830;53.704;10.004;2023-04-15T09:09:41;8.90;99.90
45066;DHT22;30830;53.704;10.004;2023-04-15T09:12:08;9.00;99.90
45066;DHT22;30830;53.704;10.004;2023-04-15T09:14:33;9.10;99.90
45066;DHT22;30830;53.704;10.004;2023-04-15T09:17:03;9.10;99.90
45066;DHT22;30830;53.704;10.004;2023-04-15T09:19:29;9.20;99.90
45066;DHT22;30830;53.704;10.004;2023-04-15T09:21:57;9.30;99.90
45066;DHT22;30830;53.704;10.004;2023-04-15T09:24:24;9.40;99.90
45066;DHT22;30830;53.704;10.004;2023-04-15T09:26:52;9.40;99.90
45066;DHT22;30830;53.704;10.004;2023-04-15T09:29:24;9.50;99.90
45066;DHT22;30830;53.704;10.004;2023-04-15T09:31:51;9.60;99.90
45066;DHT22;30830;53.704;10.004;2023-04-15T09:34:17;9.70;99.90
45066;DHT22;30830;53.704;10.004;2023-04-15T09:39:12;10.00;99.90
45066;DHT22;30830;53.704;10.004;2023-04-15T09:41:38;10.10;99.90
45066;DHT22;30830;53.704;10.004;2023-04-15T09:44:03;10.20;99.90
45066;DHT22;30830;53.704;10.004;2023-04-15T09:46:45;10.20;99.90
45066;DHT22;30830;53.704;10.004;2023-04-15T09:49:11;10.20;99.90
45066;DHT22;30830;53.704;10.004;2023-04-15T09:51:37;10.20;99.90
45066;DHT22;30830;53.704;10.004;2023-04-15T09:54:03;10.20;99.90
45066;DHT22;30830;53.704;10.004;2023-04-15T09:56:37;10.20;99.90
45066;DHT22;30830;53.704;10.004;2023-04-15T09:59:06;10.30;99.90
45066;DHT22;30830;53.704;10.004;2023-04-15T10:01:32;10.30;99.90
45066;DHT22;30830;53.704;10.004;2023-04-15T10:03:58;10.40;99.90
45066;DHT22;30830;53.704;10.004;2023-04-15T10:06:27;10.60;99.90
45066;DHT22;30830;53.704;10.004;2023-04-15T10:08:53;10.70;99.90
45066;DHT22;30830;53.704;10.004;2023-04-15T10:11:20;10.80;99.90
45066;DHT22;30830;53.704;10.004;2023-04-15T10:13:49;10.90;99.90
45066;DHT22;30830;53.704;10.004;2023-04-15T10:16:18;11.00;99.90
45066;DHT22;30830;53.704;10.004;2023-04-15T10:18:46;11.20;99.90
45066;DHT22;30830;53.704;10.004;2023-04-15T10:21:12;11.50;99.90
45066;DHT22;30830;53.704;10.004;2023-04-15T10:23:40;11.80;99.90
45066;DHT22;30830;53.704;10.004;2023-04-15T10:26:06;11.90;99.90
45066;DHT22;30830;53.704;10.004;2023-04-15T10:28:33;12.10;99.90
45066;DHT22;30830;53.704;10.004;2023-04-15T10:30:59;12.10;99.90
45066;DHT22;30830;53.704;10.004;2023-04-15T10:33:26;12.30;99.90
45066;DHT22;30830;53.704;10.004;2023-04-15T10:35:54;12.50;99.90
45066;DHT22;30830;53.704;10.004;2023-04-15T10:41:25;12.60;99.90
45066;DHT22;30830;53.704;10.004;2023-04-15T10:46:44;13.00;99.90
45066;DHT22;30830;53.704;10.004;2023-04-15T10:49:13;13.00;99.90
45066;DHT22;30830;53.704;10.004;2023-04-15T10:51:41;12.90;99.90
45066;DHT22;30830;53.704;10.004;2023-04-15T10:54:12;12.90;99.90
45066;DHT22;30830;53.704;10.004;2023-04-15T10:56:44;13.00;99.90
45066;DHT22;30830;53.704;10.004;2023-04-15T10:59:12;13.10;99.90
45066;DHT22;30830;53.704;10.004;2023-04-15T11:01:52;13.50;99.90
45066;DHT22;30830;53.704;10.004;2023-04-15T11:04:53;13.60;99.90
45066;DHT22;30830;53.704;10.004;2023-04-15T11:10:00;13.50;99.90
45066;DHT22;30830;53.704;10.004;2023-04-15T11:12:35;13.40;99.90
45066;DHT22;30830;53.704;10.004;2023-04-15T11:15:36;13.40;99.90
45066;DHT22;30830;53.704;10.004;2023-04-15T11:20:34;13.30;99.90
45066;DHT22;30830;53.704;10.004;2023-04-15T11:23:00;13.30;99.90
45066;DHT22;30830;53.704;10.004;2023-04-15T11:25:29;13.40;99.90
45066;DHT22;30830;53.704;10.004;2023-04-15T11:27:55;13.30;99.90
45066;DHT22;30830;53.704;10.004;2023-04-15T11:30:23;13.20;99.90
45066;DHT22;30830;53.704;10.004;2023-04-15T11:32:50;13.10;99.90
45066;DHT22;30830;53.704;10.004;2023-04-15T11:35:17;13.20;99.90
45066;DHT22;30830;53.704;10.004;2023-04-15T11:37:46;13.30;99.90
45066;DHT22;30830;53.704;10.004;2023-04-15T11:40:12;13.40;99.90
45066;DHT22;30830;53.704;10.004;2023-04-15T11:42:39;13.40;99.90
45066;DHT22;30830;53.704;10.004;2023-04-15T11:45:09;13.50;99.90
45066;DHT22;30830;53.704;10.004;2023-04-15T11:47:36;13.60;99.90
45066;DHT22;30830;53.704;10.004;2023-04-15T11:50:15;13.60;99.90
45066;DHT22;30830;53.704;10.004;2023-04-15T11:52:54;13.60;99.90
45066;DHT22;30830;53.704;10.004;2023-04-15T11:55:20;13.60;99.90
45066;DHT22;30830;53.704;10.004;2023-04-15T11:57:45;13.60;99.90
45066;DHT22;30830;53.704;10.004;2023-04-15T12:00:12;13.60;99.90
45066;DHT22;30830;53.704;10.004;2023-04-15T12:02:37;13.40;99.90
45066;DHT22;30830;53.704;10.004;2023-04-15T12:05:07;13.40;99.90
45066;DHT22;30830;53.704;10.004;2023-04-15T12:07:32;13.30;99.90
45066;DHT22;30830;53.704;10.004;2023-04-15T12:09:59;13.20;99.90
45066;DHT22;30830;53.704;10.004;2023-04-15T12:12:27;13.00;99.90
45066;DHT22;30830;53.704;10.004;2023-04-15T12:14:55;13.00;99.90
45066;DHT22;30830;53.704;10.004;2023-04-15T12:17:22;13.00;99.90
45066;DHT22;30830;53.704;10.004;2023-04-15T12:19:48;13.00;99.90
45066;DHT22;30830;53.704;10.004;2023-04-15T12:22:16;13.00;99.90
45066;DHT22;30830;53.704;10.004;2023-04-15T12:24:43;13.00;99.90
45066;DHT22;30830;53.704;10.004;2023-04-15T12:27:11;13.00;99.90
45066;DHT22;30830;53.704;10.004;2023-04-15T12:29:39;13.00;99.90
45066;DHT22;30830;53.704;10.004;2023-04-15T12:32:07;13.10;99.90
45066;DHT22;30830;53.704;10.004;2023-04-15T12:34:35;13.10;99.90
45066;DHT22;30830;53.704;10.004;2023-04-15T12:37:03;13.20;99.90
45066;DHT22;30830;53.704;10.004;2023-04-15T12:39:35;13.20;99.90
45066;DHT22;30830;53.704;10.004;2023-04-15T12:42:02;13.20;99.90
45066;DHT22;30830;53.704;10.004;2023-04-15T12:44:28;13.20;99.90
45066;DHT22;30830;53.704;10.004;2023-04-15T12:46:54;13.10;99.90
45066;DHT22;30830;53.704;10.004;2023-04-15T12:49:21;13.10;99.90
45066;DHT22;30830;53.704;10.004;2023-04-15T12:51:57;13.10;99.90
45066;DHT22;30830;53.704;10.004;2023-04-15T12:54:24;13.20;99.90
45066;DHT22;30830;53.704;10.004;2023-04-15T12:56:51;13.30;99.90
45066;DHT22;30830;53.704;10.004;2023-04-15T12:59:17;13.30;99.90
45066;DHT22;30830;53.704;10.004;2023-04-15T13:01:43;13.40;99.90
45066;DHT22;30830;53.704;10.004;2023-04-15T13:04:09;13.60;99.90
45066;DHT22;30830;53.704;10.004;2023-04-15T13:06:35;13.50;99.90
45066;DHT22;30830;53.704;10.004;2023-04-15T13:09:02;13.60;99.90
45066;DHT22;30830;53.704;10.004;2023-04-15T13:11:28;13.60;99.90
45066;DHT22;30830;53.704;10.004;2023-04-15T13:13:59;13.60;99.90
45066;DHT22;30830;53.704;10.004;2023-04-15T13:16:25;13.70;99.90
45066;DHT22;30830;53.704;10.004;2023-04-15T13:18:51;13.70;99.90
45066;DHT22;30830;53.704;10.004;2023-04-15T13:21:17;13.70;99.90
45066;DHT22;30830;53.704;10.004;2023-04-15T13:23:43;13.70;99.90
45066;DHT22;30830;53.704;10.004;2023-04-15T13:26:09;13.60;99.90
45066;DHT22;30830;53.704;10.004;2023-04-15T13:28:34;13.60;99.90
45066;DHT22;30830;53.704;10.004;2023-04-15T13:31:00;13.60;99.90
45066;DHT22;30830;53.704;10.004;2023-04-15T13:33:26;13.70;99.90
45066;DHT22;30830;53.704;10.004;2023-04-15T13:35:52;13.90;99.90
45066;DHT22;30830;53.704;10.004;2023-04-15T13:38:18;13.90;99.90
45066;DHT22;30830;53.704;10.004;2023-04-15T13:40:43;13.90;99.90
45066;DHT22;30830;53.704;10.004;2023-04-15T13:43:09;13.80;99.90
45066;DHT22;30830;53.704;10.004;2023-04-15T13:45:34;13.70;99.90
45066;DHT22;30830;53.704;10.004;2023-04-15T13:48:00;13.70;99.90
45066;DHT22;30830;53.704;10.004;2023-04-15T13:50:27;13.60;99.90
45066;DHT22;30830;53.704;10.004;2023-04-15T13:52:52;13.70;99.90
45066;DHT22;30830;53.704;10.004;2023-04-15T13:55:18;13.60;99.90
45066;DHT22;30830;53.704;10.004;2023-04-15T13:57:44;13.60;99.90
45066;DHT22;30830;53.704;10.004;2023-04-15T14:00:10;13.50;99.90
45066;DHT22;30830;53.704;10.004;2023-04-15T14:02:36;13.50;99.90
45066;DHT22;30830;53.704;10.004;2023-04-15T14:05:01;13.50;99.90
45066;DHT22;30830;53.704;10.004;2023-04-15T14:07:28;13.50;99.90
45066;DHT22;30830;53.704;10.004;2023-04-15T14:09:55;13.50;99.90
45066;DHT22;30830;53.704;10.004;2023-04-15T14:12:20;13.50;99.90
45066;DHT22;30830;53.704;10.004;2023-04-15T14:14:46;13.50;99.90
45066;DHT22;30830;53.704;10.004;2023-04-15T14:17:12;13.50;99.90
45066;DHT22;30830;53.704;10.004;2023-04-15T14:19:37;13.50;99.90
45066;DHT22;30830;53.704;10.004;2023-04-15T14:22:03;13.50;99.90
45066;DHT22;30830;53.704;10.004;2023-04-15T14:24:28;13.50;99.90
45066;DHT22;30830;53.704;10.004;2023-04-15T14:26:54;13.50;99.90
45066;DHT22;30830;53.704;10.004;2023-04-15T14:29:21;13.60;99.90
45066;DHT22;30830;53.704;10.004;2023-04-15T14:31:46;13.50;99.90
45066;DHT22;30830;53.704;10.004;2023-04-15T14:34:14;13.50;99.90
45066;DHT22;30830;53.704;10.004;2023-04-15T14:36:40;13.50;99.90
45066;DHT22;30830;53.704;10.004;2023-04-15T14:39:06;13.50;99.90
45066;DHT22;30830;53.704;10.004;2023-04-15T14:41:33;13.50;99.90
45066;DHT22;30830;53.704;10.004;2023-04-15T14:43:58;13.50;99.90
45066;DHT22;30830;53.704;10.004;2023-04-15T14:46:24;13.50;99.90
45066;DHT22;30830;53.704;10.004;2023-04-15T14:48:50;13.50;99.90
45066;DHT22;30830;53.704;10.004;2023-04-15T14:51:16;13.50;99.90
45066;DHT22;30830;53.704;10.004;2023-04-15T14:53:41;13.50;99.90
45066;DHT22;30830;53.704;10.004;2023-04-15T14:56:08;13.60;99.90
45066;DHT22;30830;53.704;10.004;2023-04-15T14:58:34;13.60;99.90
45066;DHT22;30830;53.704;10.004;2023-04-15T15:01:00;13.50;99.90
45066;DHT22;30830;53.704;10.004;2023-04-15T15:03:27;13.60;99.90
45066;DHT22;30830;53.704;10.004;2023-04-15T15:05:53;13.60;99.90
45066;DHT22;30830;53.704;10.004;2023-04-15T15:08:19;13.50;99.90
45066;DHT22;30830;53.704;10.004;2023-04-15T15:10:45;13.50;99.90
45066;DHT22;30830;53.704;10.004;2023-04-15T15:13:10;13.60;99.90
45066;DHT22;30830;53.704;10.004;2023-04-15T15:15:37;13.50;99.90
45066;DHT22;30830;53.704;10.004;2023-04-15T15:18:03;13.40;99.90
45066;DHT22;30830;53.704;10.004;2023-04-15T15:20:29;13.40;99.90
45066;DHT22;30830;53.704;10.004;2023-04-15T15:22:55;13.30;99.90
45066;DHT22;30830;53.704;10.004;2023-04-15T15:25:21;13.30;99.90
45066;DHT22;30830;53.704;10.004;2023-04-15T15:27:46;13.30;99.90
45066;DHT22;30830;53.704;10.004;2023-04-15T15:30:12;13.20;99.90
45066;DHT22;30830;53.704;10.004;2023-04-15T15:32:39;13.10;99.90
45066;DHT22;30830;53.704;10.004;2023-04-15T15:35:06;13.10;99.90